createdAt,value
2023-02-24T00:02:06.089Z,12.15
2023-02-24T00:04:39.756Z,12.35
2023-02-24T00:07:12.801Z,11.45
2023-02-24T00:09:40.957Z,12.85
2023-02-24T00:12:13.365Z,13.50
2023-02-24T00:14:42.803Z,13.00
2023-02-24T00:17:12.310Z,14.45
2023-02-24T00:19:39.268Z,14.60
2023-02-24T00:22:08.433Z,14.45
2023-02-24T00:24:36.288Z,13.88
2023-02-24T00:27:08.338Z,13.48
2023-02-24T00:29:37.811Z,14.05
2023-02-24T00:32:08.333Z,14.73
2023-02-24T00:34:37.718Z,14.07
2023-02-24T00:37:07.113Z,13.05
2023-02-24T00:39:35.415Z,14.18
2023-02-24T00:42:06.846Z,13.63
2023-02-24T00:44:35.070Z,14.65
2023-02-24T00:47:02.762Z,14.02
2023-02-24T00:49:29.921Z,15.00
2023-02-24T00:51:57.080Z,13.77
2023-02-24T00:54:27.496Z,14.85
2023-02-24T00:56:55.495Z,14.98
2023-02-24T00:59:24.197Z,14.50
2023-02-24T01:01:51.711Z,14.48
2023-02-24T01:04:20.164Z,14.98
2023-02-24T01:06:50.310Z,14.45
2023-02-24T01:09:20.722Z,15.37
2023-02-24T01:12:01.914Z,15.38
2023-02-24T01:14:31.612Z,17.40
2023-02-24T01:16:58.769Z,17.55
2023-02-24T01:19:31.705Z,15.13
2023-02-24T01:22:01.231Z,15.88
2023-02-24T01:24:54.234Z,16.40
2023-02-24T01:27:21.122Z,16.63
2023-02-24T01:29:48.831Z,18.17
2023-02-24T01:32:19.479Z,19.58
2023-02-24T01:37:16.629Z,17.10
2023-02-24T01:39:47.059Z,16.20
2023-02-24T01:42:21.153Z,15.82
2023-02-24T01:44:48.178Z,16.67
2023-02-24T01:47:22.972Z,17.00
2023-02-24T01:49:54.054Z,16.48
2023-02-24T01:52:23.715Z,16.77
2023-02-24T01:55:04.043Z,17.60
2023-02-24T01:57:34.990Z,17.02
2023-02-24T02:00:19.650Z,17.38
2023-02-24T02:02:52.524Z,17.55
2023-02-24T02:05:19.518Z,15.90
2023-02-24T02:07:46.538Z,16.63
2023-02-24T02:10:14.258Z,16.73
2023-02-24T02:12:44.600Z,16.92
2023-02-24T02:15:20.391Z,16.23
2023-02-24T02:18:02.840Z,15.88
2023-02-24T02:21:05.224Z,16.55
2023-02-24T02:23:57.996Z,16.17
2023-02-24T02:26:32.606Z,17.17
2023-02-24T02:29:18.095Z,16.77
2023-02-24T02:32:05.585Z,16.67
2023-02-24T02:35:03.734Z,15.95
2023-02-24T02:37:33.288Z,16.60
2023-02-24T02:40:23.392Z,16.60
2023-02-24T02:43:14.322Z,17.13
2023-02-24T02:45:51.615Z,15.70
2023-02-24T02:48:31.263Z,17.70
2023-02-24T02:51:06.995Z,17.20
2023-02-24T02:53:57.211Z,17.13
2023-02-24T02:56:36.637Z,17.37
2023-02-24T02:59:05.508Z,17.52
2023-02-24T03:01:37.765Z,17.63
2023-02-24T03:04:07.451Z,18.13
2023-02-24T03:06:36.830Z,17.02
2023-02-24T03:09:16.066Z,17.92
2023-02-24T03:11:55.921Z,17.05
2023-02-24T03:14:28.347Z,18.17
2023-02-24T03:16:57.727Z,17.27
2023-02-24T03:19:33.449Z,16.73
2023-02-24T03:22:22.062Z,16.85
2023-02-24T03:24:49.057Z,17.23
2023-02-24T03:27:27.583Z,16.52
2023-02-24T03:30:13.124Z,18.38
2023-02-24T03:32:57.772Z,17.80
2023-02-24T03:35:29.283Z,17.15
2023-02-24T03:37:59.452Z,18.33
2023-02-24T03:40:36.208Z,16.20
2023-02-24T03:43:26.308Z,18.65
2023-02-24T03:45:54.740Z,17.70
2023-02-24T03:48:22.657Z,18.10
2023-02-24T03:50:49.770Z,18.48
2023-02-24T03:53:30.924Z,19.77
2023-02-24T03:56:00.883Z,18.75
2023-02-24T03:58:43.135Z,19.40
2023-02-24T04:01:16.191Z,20.33
2023-02-24T04:04:13.535Z,18.67
2023-02-24T04:06:41.848Z,18.48
2023-02-24T04:09:33.387Z,17.98
2023-02-24T04:12:09.488Z,19.00
2023-02-24T04:14:45.491Z,18.50
2023-02-24T04:17:26.872Z,18.02
2023-02-24T04:19:58.182Z,18.80
2023-02-24T04:22:27.201Z,20.20
2023-02-24T04:24:59.814Z,20.55
2023-02-24T04:27:28.495Z,19.50
2023-02-24T04:30:00.182Z,19.98
2023-02-24T04:32:29.795Z,19.58
2023-02-24T04:35:09.593Z,19.40
2023-02-24T04:37:40.200Z,18.02
2023-02-24T04:40:13.336Z,18.88
2023-02-24T04:42:49.323Z,18.10
2023-02-24T04:45:27.981Z,19.67
2023-02-24T04:48:01.056Z,19.73
2023-02-24T04:50:30.850Z,19.15
2023-02-24T04:53:07.296Z,19.38
2023-02-24T04:55:42.538Z,20.65
2023-02-24T04:58:19.335Z,19.83
2023-02-24T05:00:49.130Z,21.00
2023-02-24T05:03:17.377Z,21.63
2023-02-24T05:05:52.244Z,20.55
2023-02-24T05:08:20.018Z,21.23
2023-02-24T05:10:47.421Z,21.88
2023-02-24T05:13:17.324Z,22.25
2023-02-24T05:15:46.018Z,22.35
2023-02-24T05:18:17.203Z,23.25
2023-02-24T05:21:06.687Z,24.30
2023-02-24T05:23:44.545Z,24.70
2023-02-24T05:26:17.308Z,27.23
2023-02-24T05:28:49.374Z,26.67
2023-02-24T05:31:20.327Z,28.55
2023-02-24T05:33:54.641Z,27.25
2023-02-24T05:36:22.494Z,26.08
2023-02-24T05:38:56.572Z,26.58
2023-02-24T05:41:32.688Z,23.23
2023-02-24T05:44:02.599Z,27.55
2023-02-24T05:46:32.779Z,25.55
2023-02-24T05:49:09.063Z,29.60
2023-02-24T05:51:43.490Z,27.80
2023-02-24T05:54:13.312Z,27.00
2023-02-24T05:56:44.560Z,25.55
2023-02-24T05:59:12.884Z,26.10
2023-02-24T06:01:41.787Z,25.75
2023-02-24T06:04:09.948Z,27.95
2023-02-24T06:06:40.749Z,28.92
2023-02-24T06:09:11.111Z,28.10
2023-02-24T06:11:40.752Z,29.10
2023-02-24T06:14:09.259Z,29.48
2023-02-24T06:16:40.073Z,29.65
2023-02-24T06:19:08.328Z,30.27
2023-02-24T06:21:41.461Z,28.80
2023-02-24T06:24:18.668Z,30.45
2023-02-24T06:26:46.681Z,30.15
2023-02-24T06:29:18.347Z,31.08
2023-02-24T06:31:45.776Z,31.38
2023-02-24T06:34:18.444Z,31.02
2023-02-24T06:36:47.066Z,29.30
2023-02-24T06:39:14.689Z,29.67
2023-02-24T06:41:42.842Z,28.90
2023-02-24T06:44:09.853Z,29.17
2023-02-24T06:46:37.239Z,28.05
2023-02-24T06:49:04.611Z,31.85
2023-02-24T06:51:32.011Z,32.30
2023-02-24T06:53:59.781Z,30.48
2023-02-24T06:56:27.694Z,30.60
2023-02-24T06:58:56.937Z,33.42
2023-02-24T07:01:26.522Z,32.35
2023-02-24T07:04:08.047Z,34.42
2023-02-24T07:06:38.421Z,32.85
2023-02-24T07:09:09.172Z,31.85
2023-02-24T07:11:37.210Z,32.45
2023-02-24T07:14:07.911Z,35.38
2023-02-24T07:16:36.371Z,38.67
2023-02-24T07:19:13.864Z,36.47
2023-02-24T07:22:00.076Z,37.13
2023-02-24T07:24:33.687Z,39.42
2023-02-24T07:27:04.661Z,37.03
2023-02-24T07:32:03.567Z,33.75
2023-02-24T07:34:32.080Z,34.50
2023-02-24T07:36:59.227Z,33.85
2023-02-24T07:39:26.385Z,35.00
2023-02-24T07:41:57.254Z,35.13
2023-02-24T07:44:24.597Z,35.80
2023-02-24T07:46:52.398Z,34.00
2023-02-24T07:49:26.119Z,34.55
2023-02-24T07:51:57.751Z,33.53
2023-02-24T07:54:27.859Z,31.35
2023-02-24T07:56:59.242Z,30.10
2023-02-24T07:59:29.468Z,29.67
2023-02-24T08:01:57.208Z,29.65
2023-02-24T08:04:30.164Z,28.10
2023-02-24T08:06:59.093Z,26.55
2023-02-24T08:09:46.863Z,27.25
2023-02-24T08:12:21.589Z,26.88
2023-02-24T08:14:52.100Z,26.50
2023-02-24T08:17:21.214Z,26.87
2023-02-24T08:19:49.828Z,27.40
2023-02-24T08:22:20.394Z,27.50
2023-02-24T08:25:00.776Z,25.88
2023-02-24T08:27:32.346Z,27.63
2023-02-24T08:30:03.587Z,25.25
2023-02-24T08:32:37.834Z,26.23
2023-02-24T08:35:15.355Z,25.67
2023-02-24T08:37:49.127Z,25.17
2023-02-24T08:40:34.365Z,25.15
2023-02-24T08:43:17.045Z,26.00
2023-02-24T08:45:56.726Z,25.42
2023-02-24T08:48:31.144Z,26.77
2023-02-24T08:51:01.053Z,26.33
2023-02-24T08:53:34.108Z,24.90
2023-02-24T08:56:09.772Z,23.75
2023-02-24T08:58:48.996Z,23.98
2023-02-24T09:01:20.895Z,24.73
2023-02-24T09:03:50.517Z,24.13
2023-02-24T09:06:25.487Z,25.73
2023-02-24T09:09:15.761Z,24.95
2023-02-24T09:11:44.873Z,26.20
2023-02-24T09:14:32.224Z,26.35
2023-02-24T09:17:02.630Z,26.23
2023-02-24T09:19:46.360Z,25.00
2023-02-24T09:22:21.105Z,25.40
2023-02-24T09:24:51.226Z,24.50
2023-02-24T09:27:18.194Z,24.77
2023-02-24T09:29:50.921Z,24.35
2023-02-24T09:32:18.033Z,27.52
2023-02-24T09:34:44.998Z,23.25
2023-02-24T09:37:25.712Z,22.10
2023-02-24T09:39:56.373Z,23.40
2023-02-24T09:42:29.241Z,23.50
2023-02-24T09:45:11.583Z,24.02
2023-02-24T09:47:54.983Z,23.13
2023-02-24T09:51:02.558Z,23.98
2023-02-24T09:53:41.588Z,21.55
2023-02-24T09:56:16.196Z,20.33
2023-02-24T09:58:53.249Z,21.02
2023-02-24T10:01:31.105Z,18.63
2023-02-24T10:04:21.184Z,17.25
2023-02-24T10:07:05.350Z,16.07
2023-02-24T10:09:52.463Z,16.95
2023-02-24T10:12:34.117Z,16.90
2023-02-24T10:15:20.860Z,18.35
2023-02-24T10:17:55.590Z,17.90
2023-02-24T10:20:45.843Z,17.45
2023-02-24T10:23:33.077Z,17.13
2023-02-24T10:26:07.732Z,16.67
2023-02-24T10:28:52.169Z,16.63
2023-02-24T10:31:46.153Z,17.02
2023-02-24T10:34:25.337Z,18.98
2023-02-24T10:36:52.936Z,19.02
2023-02-24T10:39:26.103Z,20.80
2023-02-24T10:41:59.326Z,19.52
2023-02-24T10:44:36.348Z,19.02
2023-02-24T10:47:14.143Z,18.48
2023-02-24T10:49:57.263Z,19.08
2023-02-24T10:53:11.349Z,19.10
2023-02-24T10:55:45.303Z,19.40
2023-02-24T10:59:06.749Z,20.77
2023-02-24T11:05:04.526Z,21.27
2023-02-24T11:07:53.723Z,23.85
2023-02-24T11:10:26.487Z,24.75
2023-02-24T11:13:13.799Z,28.25
2023-02-24T11:16:01.889Z,23.50
2023-02-24T11:18:30.819Z,25.27
2023-02-24T11:21:12.345Z,25.85
2023-02-24T11:23:45.853Z,21.65
2023-02-24T11:26:27.424Z,20.98
2023-02-24T11:29:07.191Z,20.75
2023-02-24T11:31:52.230Z,22.20
2023-02-24T11:34:30.937Z,21.85
2023-02-24T11:37:20.538Z,22.48
2023-02-24T11:39:55.370Z,22.58
2023-02-24T11:42:31.338Z,23.63
2023-02-24T11:45:24.060Z,23.42
2023-02-24T11:48:16.082Z,23.50
2023-02-24T11:50:51.937Z,23.52
2023-02-24T11:53:46.856Z,22.88
2023-02-24T11:56:21.774Z,20.20
2023-02-24T11:59:07.174Z,20.17
2023-02-24T12:01:47.361Z,21.27
2023-02-24T12:04:23.642Z,23.27
2023-02-24T12:07:20.902Z,22.58
2023-02-24T12:10:10.648Z,21.75
2023-02-24T12:13:03.133Z,25.15
2023-02-24T12:15:35.379Z,24.73
2023-02-24T12:18:07.160Z,26.30
2023-02-24T12:20:47.047Z,24.77
2023-02-24T12:23:33.121Z,28.55
2023-02-24T12:26:20.801Z,28.80
2023-02-24T12:28:53.536Z,28.80
2023-02-24T12:31:41.836Z,27.10
2023-02-24T12:34:36.133Z,26.75
2023-02-24T12:37:30.496Z,25.48
2023-02-24T12:40:16.107Z,27.48
2023-02-24T12:42:50.915Z,23.75
2023-02-24T12:45:26.713Z,25.88
2023-02-24T12:48:05.627Z,24.65
2023-02-24T12:50:47.344Z,25.98
2023-02-24T12:53:52.696Z,25.38
2023-02-24T12:56:27.955Z,23.80
2023-02-24T12:59:00.719Z,25.05
2023-02-24T13:01:56.410Z,24.73
2023-02-24T13:04:48.802Z,26.17
2023-02-24T13:07:35.829Z,27.25
2023-02-24T13:10:11.427Z,25.40
2023-02-24T13:12:57.369Z,25.38
2023-02-24T13:15:27.402Z,25.23
2023-02-24T13:17:58.008Z,24.73
2023-02-24T13:20:37.296Z,23.48
2023-02-24T13:23:21.176Z,22.70
2023-02-24T13:25:53.689Z,20.67
2023-02-24T13:28:33.242Z,21.95
2023-02-24T13:31:05.142Z,22.33
2023-02-24T13:33:40.835Z,23.15
2023-02-24T13:36:22.507Z,27.50
2023-02-24T13:39:05.877Z,28.73
2023-02-24T13:41:32.780Z,26.48
2023-02-24T13:44:20.340Z,27.13
2023-02-24T13:46:53.377Z,28.85
2023-02-24T13:49:59.429Z,26.85
2023-02-24T13:52:38.484Z,27.55
2023-02-24T13:55:34.376Z,35.28
2023-02-24T13:58:38.170Z,26.45
2023-02-24T14:01:14.486Z,25.95
2023-02-24T14:03:44.045Z,25.08
2023-02-24T14:06:23.143Z,24.98
2023-02-24T14:08:56.215Z,28.30
2023-02-24T14:11:28.524Z,26.20
2023-02-24T14:13:57.533Z,25.38
2023-02-24T14:16:29.230Z,27.83
2023-02-24T14:18:59.479Z,25.70
2023-02-24T14:21:28.937Z,23.55
2023-02-24T14:24:00.839Z,22.40
2023-02-24T14:26:30.413Z,24.55
2023-02-24T14:29:03.518Z,22.98
2023-02-24T14:31:31.321Z,22.50
2023-02-24T14:34:01.665Z,21.98
2023-02-24T14:36:33.325Z,20.30
2023-02-24T14:39:19.864Z,22.42
2023-02-24T14:41:47.947Z,25.40
2023-02-24T14:44:41.963Z,24.05
2023-02-24T14:47:12.040Z,22.35
2023-02-24T14:49:38.894Z,23.43
2023-02-24T14:52:23.849Z,24.25
2023-02-24T14:54:57.145Z,22.10
2023-02-24T14:57:31.998Z,22.38
2023-02-24T15:00:12.917Z,23.70
2023-02-24T15:02:46.683Z,22.52
2023-02-24T15:05:13.740Z,24.00
2023-02-24T15:07:45.393Z,23.80
2023-02-24T15:10:26.659Z,24.10
2023-02-24T15:13:10.752Z,25.23
2023-02-24T15:15:42.879Z,25.88
2023-02-24T15:18:27.182Z,25.27
2023-02-24T15:21:05.977Z,25.70
2023-02-24T15:23:35.801Z,26.63
2023-02-24T15:26:04.549Z,26.02
2023-02-24T15:28:37.399Z,27.75
2023-02-24T15:31:19.905Z,27.17
2023-02-24T15:33:59.995Z,29.17
2023-02-24T15:36:36.665Z,29.98
2023-02-24T15:39:07.037Z,30.92
2023-02-24T15:41:45.148Z,29.45
2023-02-24T15:44:32.838Z,30.08
2023-02-24T15:47:12.005Z,28.67
2023-02-24T15:49:40.381Z,30.40
2023-02-24T15:52:10.849Z,27.90
2023-02-24T15:54:42.489Z,30.60
2023-02-24T15:57:16.647Z,29.50
2023-02-24T15:59:44.564Z,29.52
2023-02-24T16:02:20.000Z,29.10
2023-02-24T16:04:48.312Z,30.10
2023-02-24T16:07:21.090Z,32.25
2023-02-24T16:09:50.964Z,30.17
2023-02-24T16:12:22.855Z,28.27
2023-02-24T16:14:55.912Z,31.40
2023-02-24T16:17:29.359Z,27.67
2023-02-24T16:19:57.012Z,31.25
2023-02-24T16:22:24.680Z,31.35
2023-02-24T16:24:51.885Z,29.85
2023-02-24T16:27:23.209Z,30.23
2023-02-24T16:29:51.234Z,29.77
2023-02-24T16:32:22.294Z,30.33
2023-02-24T16:34:53.156Z,30.40
2023-02-24T16:37:22.861Z,29.10
2023-02-24T16:39:50.198Z,29.33
2023-02-24T16:42:18.283Z,32.03
2023-02-24T16:44:48.888Z,30.45
2023-02-24T16:47:22.422Z,31.77
2023-02-24T16:49:49.698Z,30.65
2023-02-24T16:52:20.760Z,30.08
2023-02-24T16:57:15.455Z,27.05
2023-02-24T16:59:42.471Z,29.70
2023-02-24T17:02:27.814Z,28.52
2023-02-24T17:04:55.306Z,28.75
2023-02-24T17:07:22.435Z,35.30
2023-02-24T17:09:49.358Z,29.48
2023-02-24T17:12:21.696Z,32.55
2023-02-24T17:14:49.023Z,29.98
2023-02-24T17:17:18.428Z,29.42
2023-02-24T17:19:45.387Z,28.73
2023-02-24T17:22:12.236Z,31.45
2023-02-24T17:24:39.134Z,30.20
2023-02-24T17:27:07.868Z,34.50
2023-02-24T17:29:34.752Z,34.13
2023-02-24T17:32:01.915Z,35.75
2023-02-24T17:34:28.888Z,36.35
2023-02-24T17:36:55.799Z,36.00
2023-02-24T17:39:22.823Z,31.48
2023-02-24T17:41:49.733Z,35.00
2023-02-24T17:44:16.670Z,30.83
2023-02-24T17:46:43.717Z,32.03
2023-02-24T17:49:10.633Z,30.52
2023-02-24T17:51:37.566Z,30.08
2023-02-24T17:54:04.566Z,25.23
2023-02-24T17:56:31.488Z,28.95
2023-02-24T17:59:01.073Z,29.27
2023-02-24T18:01:28.475Z,28.48
2023-02-24T18:03:57.535Z,25.90
2023-02-24T18:06:25.387Z,23.17
2023-02-24T18:08:52.351Z,26.70
2023-02-24T18:11:20.341Z,25.45
2023-02-24T18:13:50.889Z,25.05
2023-02-24T18:16:18.001Z,24.63
2023-02-24T18:18:45.039Z,25.20
2023-02-24T18:21:12.124Z,24.42
2023-02-24T18:23:40.595Z,26.08
2023-02-24T18:26:09.637Z,22.55
2023-02-24T18:28:36.906Z,23.10
2023-02-24T18:31:16.164Z,22.45
2023-02-24T18:33:43.569Z,24.02
2023-02-24T18:36:11.420Z,23.95
2023-02-24T18:38:38.336Z,25.00
2023-02-24T18:41:08.167Z,26.20
2023-02-24T18:43:35.840Z,28.02
2023-02-24T18:46:05.967Z,30.02
2023-02-24T18:48:34.620Z,31.83
2023-02-24T18:51:01.860Z,30.20
2023-02-24T18:53:31.662Z,28.48
2023-02-24T18:56:01.064Z,26.25
2023-02-24T18:58:31.294Z,28.77
2023-02-24T19:00:58.227Z,27.10
2023-02-24T19:03:25.492Z,29.63
2023-02-24T19:05:52.517Z,28.77
2023-02-24T19:08:19.449Z,29.65
2023-02-24T19:10:46.496Z,28.63
2023-02-24T19:13:13.466Z,27.90
2023-02-24T19:15:40.620Z,29.63
2023-02-24T19:18:07.601Z,28.73
2023-02-24T19:20:34.545Z,26.42
2023-02-24T19:23:01.616Z,26.15
2023-02-24T19:25:28.504Z,23.65
2023-02-24T19:27:55.419Z,24.70
2023-02-24T19:30:22.287Z,23.90
2023-02-24T19:32:49.686Z,22.73
2023-02-24T19:35:16.876Z,20.98
2023-02-24T19:37:43.861Z,22.83
2023-02-24T19:40:11.486Z,23.00
2023-02-24T19:42:38.632Z,22.92
2023-02-24T19:45:06.127Z,22.42
2023-02-24T19:47:33.088Z,22.23
2023-02-24T19:49:59.991Z,22.30
2023-02-24T19:52:26.957Z,21.13
2023-02-24T19:54:54.401Z,22.88
2023-02-24T19:57:21.308Z,24.85
2023-02-24T19:59:51.918Z,23.33
2023-02-24T20:02:19.142Z,24.08
2023-02-24T20:04:46.220Z,23.67
2023-02-24T20:07:13.157Z,24.88
2023-02-24T20:09:42.819Z,24.63
2023-02-24T20:12:10.280Z,23.92
2023-02-24T20:14:37.195Z,22.52
2023-02-24T20:17:04.348Z,23.02
2023-02-24T20:19:33.611Z,22.75
2023-02-24T20:22:01.068Z,21.77
2023-02-24T20:24:27.953Z,21.52
2023-02-24T20:26:54.876Z,21.33
2023-02-24T20:29:22.067Z,22.42
2023-02-24T20:31:49.797Z,22.90
2023-02-24T20:34:17.051Z,22.25
2023-02-24T20:36:44.448Z,22.63
2023-02-24T20:39:14.767Z,24.55
2023-02-24T20:41:41.857Z,23.25
2023-02-24T20:44:09.288Z,23.25
2023-02-24T20:46:36.364Z,23.25
2023-02-24T20:49:08.947Z,24.88
2023-02-24T20:51:37.507Z,26.25
2023-02-24T20:54:06.146Z,23.35
2023-02-24T20:56:36.709Z,24.42
2023-02-24T20:59:18.589Z,25.05
2023-02-24T21:01:47.728Z,22.65
2023-02-24T21:04:18.744Z,24.00
2023-02-24T21:06:48.050Z,25.45
2023-02-24T21:09:15.747Z,24.63
2023-02-24T21:11:42.747Z,26.10
2023-02-24T21:14:17.541Z,25.10
2023-02-24T21:16:46.324Z,25.65
2023-02-24T21:19:13.833Z,26.27
2023-02-24T21:21:40.766Z,26.83
2023-02-24T21:24:08.719Z,26.38
2023-02-24T21:26:35.625Z,28.55
2023-02-24T21:29:02.583Z,26.55
2023-02-24T21:31:29.609Z,30.25
2023-02-24T21:33:56.895Z,28.95
2023-02-24T21:36:26.240Z,29.27
2023-02-24T21:38:55.121Z,27.52
2023-02-24T21:41:23.793Z,28.45
2023-02-24T21:43:55.277Z,27.70
2023-02-24T21:46:24.590Z,29.70
2023-02-24T21:48:56.305Z,28.27
2023-02-24T21:51:24.973Z,27.80
2023-02-24T21:53:55.052Z,27.55
2023-02-24T21:56:24.962Z,28.03
2023-02-24T21:58:56.214Z,28.20
2023-02-24T22:01:54.574Z,25.90
2023-02-24T22:04:22.094Z,25.15
2023-02-24T22:06:49.063Z,24.30
2023-02-24T22:09:19.950Z,25.08
2023-02-24T22:11:48.673Z,24.13
2023-02-24T22:14:16.133Z,26.05
2023-02-24T22:16:43.929Z,30.02
2023-02-24T22:19:11.647Z,25.67
2023-02-24T22:21:42.567Z,30.67
2023-02-24T22:26:40.223Z,25.70
2023-02-24T22:29:07.724Z,24.95
2023-02-24T22:31:36.829Z,24.42
2023-02-24T22:34:04.679Z,27.30
2023-02-24T22:36:34.172Z,25.60
2023-02-24T22:39:02.026Z,24.67
2023-02-24T22:41:31.526Z,25.13
2023-02-24T22:43:59.320Z,26.15
2023-02-24T22:46:35.702Z,24.17
2023-02-24T22:49:02.951Z,24.55
2023-02-24T22:51:29.967Z,24.45
2023-02-24T22:53:57.017Z,24.27
2023-02-24T22:56:26.604Z,24.40
2023-02-24T22:58:53.569Z,24.08
2023-02-24T23:01:25.240Z,22.50
2023-02-24T23:03:52.782Z,20.50
2023-02-24T23:06:23.382Z,20.27
2023-02-24T23:08:51.847Z,21.02
2023-02-24T23:11:25.096Z,20.15
2023-02-24T23:13:52.181Z,20.50
2023-02-24T23:16:22.313Z,20.25
2023-02-24T23:18:53.980Z,21.88
2023-02-24T23:21:26.576Z,19.58
2023-02-24T23:23:56.985Z,19.90
2023-02-24T23:26:40.594Z,20.85
2023-02-24T23:29:08.516Z,19.48
2023-02-24T23:31:35.839Z,19.85
2023-02-24T23:34:07.145Z,19.55
2023-02-24T23:36:36.092Z,18.88
2023-02-24T23:39:04.428Z,19.13
2023-02-24T23:41:31.802Z,18.23
2023-02-24T23:43:59.042Z,17.58
2023-02-24T23:46:26.026Z,16.75
2023-02-24T23:48:53.952Z,21.30
2023-02-24T23:51:21.302Z,17.25
2023-02-24T23:53:48.528Z,15.70
2023-02-24T23:56:16.869Z,17.38
2023-02-24T23:58:43.870Z,18.70
